Ruso, North Dakota
Current Conditions -  °F | °C
As of 6:54 AM on Friday 24 Oct 2014 (Local Time) from KMOT Reporting Station
Clear Clear  
Wind Chill: 51°   Ceiling: Unl
Heat Index: 51°   Visibility: 10mi
Dew Point: 35°   Wind: 14mph
Humidity: 54%   Direction: 220°SW
Pressure: 29.76"   Gusts: NA
Location:  47.84°N, 100.93°W
Report Text: KMOT 241154Z AUTO 22012KT 10SM CLR 11/02 A2976 RMK AO2 SLP083 T01060017 10133 20089 53002
Loading
Personal Weather Stations






























Interactive Weather Map
Tropical Storm Tracking
New forecast layout! Learn more

10-Day Weather Forecast

Advertisements
Track Severe Weather on mobile